sensor_id;sensor_type;location;lat;lon;timestamp;temperature;humidity
21807;DHT22;11065;50.786;7.840;2023-03-01T00:01:46;1.70;36.20
21807;DHT22;11065;50.786;7.840;2023-03-01T00:04:14;1.70;36.10
21807;DHT22;11065;50.786;7.840;2023-03-01T00:06:43;1.60;36.10
21807;DHT22;11065;50.786;7.840;2023-03-01T00:09:13;1.60;36.20
21807;DHT22;11065;50.786;7.840;2023-03-01T00:11:41;1.60;36.30
21807;DHT22;11065;50.786;7.840;2023-03-01T00:14:10;1.60;36.20
21807;DHT22;11065;50.786;7.840;2023-03-01T00:16:39;1.50;36.20
21807;DHT22;11065;50.786;7.840;2023-03-01T00:19:13;1.50;36.30
21807;DHT22;11065;50.786;7.840;2023-03-01T00:21:41;1.50;36.50
21807;DHT22;11065;50.786;7.840;2023-03-01T00:24:10;1.50;36.40
21807;DHT22;11065;50.786;7.840;2023-03-01T00:26:38;1.40;36.50
21807;DHT22;11065;50.786;7.840;2023-03-01T00:29:07;1.40;37.00
21807;DHT22;11065;50.786;7.840;2023-03-01T00:31:35;1.40;37.00
21807;DHT22;11065;50.786;7.840;2023-03-01T00:34:05;1.30;36.80
21807;DHT22;11065;50.786;7.840;2023-03-01T00:36:36;1.30;36.80
21807;DHT22;11065;50.786;7.840;2023-03-01T00:39:07;1.20;36.80
21807;DHT22;11065;50.786;7.840;2023-03-01T00:41:37;1.20;36.80
21807;DHT22;11065;50.786;7.840;2023-03-01T00:44:07;1.20;36.90
21807;DHT22;11065;50.786;7.840;2023-03-01T00:46:36;1.20;36.90
21807;DHT22;11065;50.786;7.840;2023-03-01T00:49:05;1.20;37.00
21807;DHT22;11065;50.786;7.840;2023-03-01T00:51:34;1.20;37.00
21807;DHT22;11065;50.786;7.840;2023-03-01T00:54:03;1.10;37.00
21807;DHT22;11065;50.786;7.840;2023-03-01T00:56:31;1.10;37.00
21807;DHT22;11065;50.786;7.840;2023-03-01T00:59:00;1.10;37.00
21807;DHT22;11065;50.786;7.840;2023-03-01T01:01:29;1.10;37.10
21807;DHT22;11065;50.786;7.840;2023-03-01T01:04:00;1.10;37.20
21807;DHT22;11065;50.786;7.840;2023-03-01T01:06:30;1.10;37.60
21807;DHT22;11065;50.786;7.840;2023-03-01T01:09:02;1.10;37.10
21807;DHT22;11065;50.786;7.840;2023-03-01T01:11:32;1.00;37.10
21807;DHT22;11065;50.786;7.840;2023-03-01T01:14:00;1.00;37.60
21807;DHT22;11065;50.786;7.840;2023-03-01T01:16:29;1.00;37.20
21807;DHT22;11065;50.786;7.840;2023-03-01T01:18:57;1.00;37.20
21807;DHT22;11065;50.786;7.840;2023-03-01T01:21:27;1.00;37.30
21807;DHT22;11065;50.786;7.840;2023-03-01T01:23:56;1.00;37.40
21807;DHT22;11065;50.786;7.840;2023-03-01T01:26:27;0.90;37.50
21807;DHT22;11065;50.786;7.840;2023-03-01T01:28:57;0.90;37.40
21807;DHT22;11065;50.786;7.840;2023-03-01T01:31:25;0.90;37.40
21807;DHT22;11065;50.786;7.840;2023-03-01T01:33:54;0.80;37.30
21807;DHT22;11065;50.786;7.840;2023-03-01T01:36:23;0.80;37.50
21807;DHT22;11065;50.786;7.840;2023-03-01T01:38:51;0.70;37.50
21807;DHT22;11065;50.786;7.840;2023-03-01T01:41:20;0.70;37.50
21807;DHT22;11065;50.786;7.840;2023-03-01T01:44:11;0.70;37.60
21807;DHT22;11065;50.786;7.840;2023-03-01T01:46:41;0.70;38.10
21807;DHT22;11065;50.786;7.840;2023-03-01T01:49:19;0.60;37.80
21807;DHT22;11065;50.786;7.840;2023-03-01T01:51:52;0.60;37.80
21807;DHT22;11065;50.786;7.840;2023-03-01T01:54:24;0.60;37.80
21807;DHT22;11065;50.786;7.840;2023-03-01T01:56:57;0.60;37.80
21807;DHT22;11065;50.786;7.840;2023-03-01T01:59:28;0.50;38.00
21807;DHT22;11065;50.786;7.840;2023-03-01T02:01:59;0.50;37.90
21807;DHT22;11065;50.786;7.840;2023-03-01T02:04:28;0.50;37.90
21807;DHT22;11065;50.786;7.840;2023-03-01T02:07:01;0.40;37.80
21807;DHT22;11065;50.786;7.840;2023-03-01T02:09:32;0.40;38.00
21807;DHT22;11065;50.786;7.840;2023-03-01T02:12:02;0.40;37.90
21807;DHT22;11065;50.786;7.840;2023-03-01T02:14:32;0.40;38.10
21807;DHT22;11065;50.786;7.840;2023-03-01T02:17:00;0.40;38.10
21807;DHT22;11065;50.786;7.840;2023-03-01T02:19:40;0.40;38.10
21807;DHT22;11065;50.786;7.840;2023-03-01T02:22:17;0.30;38.20
21807;DHT22;11065;50.786;7.840;2023-03-01T02:24:55;0.30;38.20
21807;DHT22;11065;50.786;7.840;2023-03-01T02:27:33;0.30;38.10
21807;DHT22;11065;50.786;7.840;2023-03-01T02:30:06;0.20;38.10
21807;DHT22;11065;50.786;7.840;2023-03-01T02:32:35;0.20;38.00
21807;DHT22;11065;50.786;7.840;2023-03-01T02:35:03;0.20;38.10
21807;DHT22;11065;50.786;7.840;2023-03-01T02:37:35;0.20;38.20
21807;DHT22;11065;50.786;7.840;2023-03-01T02:40:06;0.20;38.20
21807;DHT22;11065;50.786;7.840;2023-03-01T02:42:45;0.10;38.20
21807;DHT22;11065;50.786;7.840;2023-03-01T02:45:16;0.10;38.40
21807;DHT22;11065;50.786;7.840;2023-03-01T02:47:45;0.10;38.30
21807;DHT22;11065;50.786;7.840;2023-03-01T02:50:22;0.10;38.30
21807;DHT22;11065;50.786;7.840;2023-03-01T02:52:56;0.10;38.50
21807;DHT22;11065;50.786;7.840;2023-03-01T02:55:27;0.00;38.30
21807;DHT22;11065;50.786;7.840;2023-03-01T02:57:57;0.00;38.50
21807;DHT22;11065;50.786;7.840;2023-03-01T03:00:30;0.00;38.50
21807;DHT22;11065;50.786;7.840;2023-03-01T03:03:00;-0.10;38.40
21807;DHT22;11065;50.786;7.840;2023-03-01T03:05:30;-0.10;38.90
21807;DHT22;11065;50.786;7.840;2023-03-01T03:08:01;-0.10;38.50
21807;DHT22;11065;50.786;7.840;2023-03-01T03:10:37;-0.10;38.40
21807;DHT22;11065;50.786;7.840;2023-03-01T03:13:09;-0.10;38.40
21807;DHT22;11065;50.786;7.840;2023-03-01T03:15:39;-0.10;38.40
21807;DHT22;11065;50.786;7.840;2023-03-01T03:18:09;-0.20;38.50
21807;DHT22;11065;50.786;7.840;2023-03-01T03:20:40;-0.20;38.50
21807;DHT22;11065;50.786;7.840;2023-03-01T03:23:11;-0.20;38.50
21807;DHT22;11065;50.786;7.840;2023-03-01T03:25:40;-0.20;38.60
21807;DHT22;11065;50.786;7.840;2023-03-01T03:28:08;-0.30;38.40
21807;DHT22;11065;50.786;7.840;2023-03-01T03:30:40;-0.30;38.50
21807;DHT22;11065;50.786;7.840;2023-03-01T03:33:10;-0.30;38.60
21807;DHT22;11065;50.786;7.840;2023-03-01T03:35:42;-0.30;38.60
21807;DHT22;11065;50.786;7.840;2023-03-01T03:38:12;-0.30;38.70
21807;DHT22;11065;50.786;7.840;2023-03-01T03:40:45;-0.30;38.70
21807;DHT22;11065;50.786;7.840;2023-03-01T03:43:15;-0.40;38.60
21807;DHT22;11065;50.786;7.840;2023-03-01T03:45:45;-0.40;38.80
21807;DHT22;11065;50.786;7.840;2023-03-01T03:48:14;-0.40;38.80
21807;DHT22;11065;50.786;7.840;2023-03-01T03:50:48;-0.50;38.90
21807;DHT22;11065;50.786;7.840;2023-03-01T03:53:16;-0.50;38.90
21807;DHT22;11065;50.786;7.840;2023-03-01T03:55:44;-0.50;38.90
21807;DHT22;11065;50.786;7.840;2023-03-01T03:58:16;-0.50;38.80
21807;DHT22;11065;50.786;7.840;2023-03-01T04:00:49;-0.50;38.90
21807;DHT22;11065;50.786;7.840;2023-03-01T04:03:18;-0.50;39.00
21807;DHT22;11065;50.786;7.840;2023-03-01T04:05:47;-0.60;38.90
21807;DHT22;11065;50.786;7.840;2023-03-01T04:08:17;-0.60;38.90
21807;DHT22;11065;50.786;7.840;2023-03-01T04:10:48;-0.60;38.90
21807;DHT22;11065;50.786;7.840;2023-03-01T04:13:19;-0.60;39.00
21807;DHT22;11065;50.786;7.840;2023-03-01T04:15:50;-0.70;39.00
21807;DHT22;11065;50.786;7.840;2023-03-01T04:18:19;-0.70;39.00
21807;DHT22;11065;50.786;7.840;2023-03-01T04:20:48;-0.70;39.00
21807;DHT22;11065;50.786;7.840;2023-03-01T04:23:20;-0.70;39.10
21807;DHT22;11065;50.786;7.840;2023-03-01T04:25:50;-0.70;39.00
21807;DHT22;11065;50.786;7.840;2023-03-01T04:28:21;-0.70;39.10
21807;DHT22;11065;50.786;7.840;2023-03-01T04:30:53;-0.80;39.10
21807;DHT22;11065;50.786;7.840;2023-03-01T04:33:22;-0.80;39.10
21807;DHT22;11065;50.786;7.840;2023-03-01T04:35:50;-0.70;39.20
21807;DHT22;11065;50.786;7.840;2023-03-01T04:38:19;-0.80;39.10
21807;DHT22;11065;50.786;7.840;2023-03-01T04:40:48;-0.90;39.10
21807;DHT22;11065;50.786;7.840;2023-03-01T04:43:16;-0.90;39.10
21807;DHT22;11065;50.786;7.840;2023-03-01T04:45:44;-0.90;39.10
21807;DHT22;11065;50.786;7.840;2023-03-01T04:48:13;-0.90;39.10
21807;DHT22;11065;50.786;7.840;2023-03-01T04:50:41;-0.90;39.30
21807;DHT22;11065;50.786;7.840;2023-03-01T04:53:09;-1.00;39.30
21807;DHT22;11065;50.786;7.840;2023-03-01T04:55:37;-1.00;39.30
21807;DHT22;11065;50.786;7.840;2023-03-01T04:58:05;-1.00;39.30
21807;DHT22;11065;50.786;7.840;2023-03-01T05:00:34;-1.10;39.20
21807;DHT22;11065;50.786;7.840;2023-03-01T05:03:02;-1.10;39.30
21807;DHT22;11065;50.786;7.840;2023-03-01T05:05:33;-1.10;39.30
21807;DHT22;11065;50.786;7.840;2023-03-01T05:08:04;-1.10;39.30
21807;DHT22;11065;50.786;7.840;2023-03-01T05:10:35;-1.20;39.30
21807;DHT22;11065;50.786;7.840;2023-03-01T05:13:05;-1.20;39.30
21807;DHT22;11065;50.786;7.840;2023-03-01T05:15:33;-1.20;39.40
21807;DHT22;11065;50.786;7.840;2023-03-01T05:18:03;-1.20;39.30
21807;DHT22;11065;50.786;7.840;2023-03-01T05:20:35;-1.20;39.40
21807;DHT22;11065;50.786;7.840;2023-03-01T05:23:04;-1.20;39.40
21807;DHT22;11065;50.786;7.840;2023-03-01T05:25:33;-1.30;39.90
21807;DHT22;11065;50.786;7.840;2023-03-01T05:28:02;-1.30;39.40
21807;DHT22;11065;50.786;7.840;2023-03-01T05:30:31;-1.30;39.50
21807;DHT22;11065;50.786;7.840;2023-03-01T05:33:00;-1.30;39.50
21807;DHT22;11065;50.786;7.840;2023-03-01T05:35:28;-1.30;39.50
21807;DHT22;11065;50.786;7.840;2023-03-01T05:38:00;-1.30;39.50
21807;DHT22;11065;50.786;7.840;2023-03-01T05:40:28;-1.40;39.50
21807;DHT22;11065;50.786;7.840;2023-03-01T05:42:57;-1.40;39.50
21807;DHT22;11065;50.786;7.840;2023-03-01T05:45:26;-1.40;39.60
21807;DHT22;11065;50.786;7.840;2023-03-01T05:47:55;-1.40;40.10
21807;DHT22;11065;50.786;7.840;2023-03-01T05:50:25;-1.40;39.60
21807;DHT22;11065;50.786;7.840;2023-03-01T05:52:58;-1.40;39.70
21807;DHT22;11065;50.786;7.840;2023-03-01T05:55:29;-1.50;39.70
21807;DHT22;11065;50.786;7.840;2023-03-01T05:57:58;-1.50;39.70
21807;DHT22;11065;50.786;7.840;2023-03-01T06:00:28;-1.50;39.70
21807;DHT22;11065;50.786;7.840;2023-03-01T06:02:57;-1.50;39.70
21807;DHT22;11065;50.786;7.840;2023-03-01T06:05:25;-1.50;39.60
21807;DHT22;11065;50.786;7.840;2023-03-01T06:07:54;-1.50;39.80
21807;DHT22;11065;50.786;7.840;2023-03-01T06:10:23;-1.50;39.70
21807;DHT22;11065;50.786;7.840;2023-03-01T06:12:53;-1.50;39.70
21807;DHT22;11065;50.786;7.840;2023-03-01T06:15:22;-1.50;39.80
21807;DHT22;11065;50.786;7.840;2023-03-01T06:17:50;-1.60;39.80
21807;DHT22;11065;50.786;7.840;2023-03-01T06:20:21;-1.60;39.80
21807;DHT22;11065;50.786;7.840;2023-03-01T06:22:50;-1.60;39.80
21807;DHT22;11065;50.786;7.840;2023-03-01T06:25:20;-1.60;39.80
21807;DHT22;11065;50.786;7.840;2023-03-01T06:27:49;-1.60;39.80
21807;DHT22;11065;50.786;7.840;2023-03-01T06:30:22;-1.60;39.80
21807;DHT22;11065;50.786;7.840;2023-03-01T06:32:50;-1.60;39.90
21807;DHT22;11065;50.786;7.840;2023-03-01T06:35:18;-1.60;39.90
21807;DHT22;11065;50.786;7.840;2023-03-01T06:37:47;-1.60;40.00
21807;DHT22;11065;50.786;7.840;2023-03-01T06:40:16;-1.70;40.00
21807;DHT22;11065;50.786;7.840;2023-03-01T06:42:48;-1.70;40.10
21807;DHT22;11065;50.786;7.840;2023-03-01T06:45:17;-1.70;40.10
21807;DHT22;11065;50.786;7.840;2023-03-01T06:47:47;-1.70;40.10
21807;DHT22;11065;50.786;7.840;2023-03-01T06:50:17;-1.70;40.00
21807;DHT22;11065;50.786;7.840;2023-03-01T06:52:45;-1.70;40.10
21807;DHT22;11065;50.786;7.840;2023-03-01T06:55:12;-1.70;40.20
21807;DHT22;11065;50.786;7.840;2023-03-01T06:57:41;-1.70;40.30
21807;DHT22;11065;50.786;7.840;2023-03-01T07:00:10;-1.60;40.30
21807;DHT22;11065;50.786;7.840;2023-03-01T07:02:38;-1.60;40.40
21807;DHT22;11065;50.786;7.840;2023-03-01T07:05:08;-1.60;40.40
21807;DHT22;11065;50.786;7.840;2023-03-01T07:07:36;-1.60;40.40
21807;DHT22;11065;50.786;7.840;2023-03-01T07:10:05;-1.60;40.40
21807;DHT22;11065;50.786;7.840;2023-03-01T07:12:33;-1.50;40.50
21807;DHT22;11065;50.786;7.840;2023-03-01T07:15:01;-1.50;40.50
21807;DHT22;11065;50.786;7.840;2023-03-01T07:17:29;-1.50;40.60
21807;DHT22;11065;50.786;7.840;2023-03-01T07:19:57;-1.40;40.60
21807;DHT22;11065;50.786;7.840;2023-03-01T07:22:26;-1.40;40.60
21807;DHT22;11065;50.786;7.840;2023-03-01T07:24:54;-1.40;40.60
21807;DHT22;11065;50.786;7.840;2023-03-01T07:27:23;-1.30;40.70
21807;DHT22;11065;50.786;7.840;2023-03-01T07:29:50;-1.30;40.70
21807;DHT22;11065;50.786;7.840;2023-03-01T07:32:18;-1.30;40.60
21807;DHT22;11065;50.786;7.840;2023-03-01T07:34:46;-1.20;40.70
21807;DHT22;11065;50.786;7.840;2023-03-01T07:37:15;-1.20;40.80
21807;DHT22;11065;50.786;7.840;2023-03-01T07:39:44;-1.10;40.90
21807;DHT22;11065;50.786;7.840;2023-03-01T07:42:12;-1.10;41.00
21807;DHT22;11065;50.786;7.840;2023-03-01T07:44:40;-1.10;41.00
21807;DHT22;11065;50.786;7.840;2023-03-01T07:47:08;-1.00;41.00
21807;DHT22;11065;50.786;7.840;2023-03-01T07:49:36;-1.00;41.00
21807;DHT22;11065;50.786;7.840;2023-03-01T07:52:04;-1.00;41.00
21807;DHT22;11065;50.786;7.840;2023-03-01T07:54:33;-0.90;41.10
21807;DHT22;11065;50.786;7.840;2023-03-01T07:57:02;-0.90;41.10
21807;DHT22;11065;50.786;7.840;2023-03-01T07:59:30;-0.90;41.20
21807;DHT22;11065;50.786;7.840;2023-03-01T08:01:59;-0.80;41.30
21807;DHT22;11065;50.786;7.840;2023-03-01T08:04:27;-0.80;41.50
21807;DHT22;11065;50.786;7.840;2023-03-01T08:06:55;-0.70;41.50
21807;DHT22;11065;50.786;7.840;2023-03-01T08:09:23;-0.70;41.70
21807;DHT22;11065;50.786;7.840;2023-03-01T08:11:51;-0.60;41.70
21807;DHT22;11065;50.786;7.840;2023-03-01T08:14:22;-0.50;41.80
21807;DHT22;11065;50.786;7.840;2023-03-01T08:16:50;-0.50;41.80
21807;DHT22;11065;50.786;7.840;2023-03-01T08:19:19;-0.40;42.00
21807;DHT22;11065;50.786;7.840;2023-03-01T08:21:47;-0.30;42.00
21807;DHT22;11065;50.786;7.840;2023-03-01T08:24:15;-0.20;42.00
21807;DHT22;11065;50.786;7.840;2023-03-01T08:26:43;-0.10;42.10
21807;DHT22;11065;50.786;7.840;2023-03-01T08:29:11;0.00;42.00
21807;DHT22;11065;50.786;7.840;2023-03-01T08:31:41;0.10;42.70
21807;DHT22;11065;50.786;7.840;2023-03-01T08:34:11;0.30;42.30
21807;DHT22;11065;50.786;7.840;2023-03-01T08:36:40;0.40;42.40
21807;DHT22;11065;50.786;7.840;2023-03-01T08:39:10;0.50;42.80
21807;DHT22;11065;50.786;7.840;2023-03-01T08:41:39;0.60;42.90
21807;DHT22;11065;50.786;7.840;2023-03-01T08:44:08;0.70;42.40
21807;DHT22;11065;50.786;7.840;2023-03-01T08:46:38;0.80;42.50
21807;DHT22;11065;50.786;7.840;2023-03-01T08:49:11;1.00;42.50
21807;DHT22;11065;50.786;7.840;2023-03-01T08:51:40;1.00;42.50
21807;DHT22;11065;50.786;7.840;2023-03-01T08:54:11;1.20;42.60
21807;DHT22;11065;50.786;7.840;2023-03-01T08:56:39;1.30;42.70
21807;DHT22;11065;50.786;7.840;2023-03-01T08:59:07;1.80;43.60
21807;DHT22;11065;50.786;7.840;2023-03-01T09:01:35;2.60;44.90
21807;DHT22;11065;50.786;7.840;2023-03-01T09:04:04;3.70;46.40
21807;DHT22;11065;50.786;7.840;2023-03-01T09:06:34;5.00;47.40
21807;DHT22;11065;50.786;7.840;2023-03-01T09:09:03;6.50;47.90
21807;DHT22;11065;50.786;7.840;2023-03-01T09:11:32;8.10;47.60
21807;DHT22;11065;50.786;7.840;2023-03-01T09:14:00;9.60;47.10
21807;DHT22;11065;50.786;7.840;2023-03-01T09:16:28;11.20;46.50
21807;DHT22;11065;50.786;7.840;2023-03-01T09:19:00;12.60;45.70
21807;DHT22;11065;50.786;7.840;2023-03-01T09:21:29;14.10;44.70
21807;DHT22;11065;50.786;7.840;2023-03-01T09:24:12;15.40;43.50
21807;DHT22;11065;50.786;7.840;2023-03-01T09:26:41;16.80;42.30
21807;DHT22;11065;50.786;7.840;2023-03-01T09:29:09;17.90;41.00
21807;DHT22;11065;50.786;7.840;2023-03-01T09:31:38;18.90;39.90
21807;DHT22;11065;50.786;7.840;2023-03-01T09:34:07;19.90;38.70
21807;DHT22;11065;50.786;7.840;2023-03-01T09:36:36;20.70;37.60
21807;DHT22;11065;50.786;7.840;2023-03-01T09:39:04;21.50;36.80
21807;DHT22;11065;50.786;7.840;2023-03-01T09:41:45;22.20;35.80
21807;DHT22;11065;50.786;7.840;2023-03-01T09:44:21;22.90;33.90
21807;DHT22;11065;50.786;7.840;2023-03-01T09:46:51;23.50;33.80
21807;DHT22;11065;50.786;7.840;2023-03-01T09:49:23;24.10;33.80
21807;DHT22;11065;50.786;7.840;2023-03-01T09:52:00;24.70;33.00
21807;DHT22;11065;50.786;7.840;2023-03-01T09:54:29;25.30;31.70
21807;DHT22;11065;50.786;7.840;2023-03-01T09:57:17;25.80;32.10
21807;DHT22;11065;50.786;7.840;2023-03-01T10:00:10;26.30;30.00
21807;DHT22;11065;50.786;7.840;2023-03-01T10:02:43;26.80;30.00
21807;DHT22;11065;50.786;7.840;2023-03-01T10:05:26;27.20;30.30
21807;DHT22;11065;50.786;7.840;2023-03-01T10:08:18;27.60;29.40
21807;DHT22;11065;50.786;7.840;2023-03-01T10:10:48;28.00;29.00
21807;DHT22;11065;50.786;7.840;2023-03-01T10:13:21;28.30;29.30
21807;DHT22;11065;50.786;7.840;2023-03-01T10:15:54;28.50;28.50
21807;DHT22;11065;50.786;7.840;2023-03-01T10:18:27;28.70;28.40
21807;DHT22;11065;50.786;7.840;2023-03-01T10:20:59;28.90;28.20
21807;DHT22;11065;50.786;7.840;2023-03-01T10:23:30;29.10;27.90
21807;DHT22;11065;50.786;7.840;2023-03-01T10:26:15;29.20;27.10
21807;DHT22;11065;50.786;7.840;2023-03-01T10:28:58;29.30;26.60
21807;DHT22;11065;50.786;7.840;2023-03-01T10:31:38;29.40;26.20
21807;DHT22;11065;50.786;7.840;2023-03-01T10:34:10;29.60;26.40
21807;DHT22;11065;50.786;7.840;2023-03-01T10:36:40;29.60;26.60
21807;DHT22;11065;50.786;7.840;2023-03-01T10:39:15;29.60;26.60
21807;DHT22;11065;50.786;7.840;2023-03-01T10:42:05;29.70;25.80
21807;DHT22;11065;50.786;7.840;2023-03-01T10:44:41;29.80;25.50
21807;DHT22;11065;50.786;7.840;2023-03-01T10:47:19;29.90;25.50
21807;DHT22;11065;50.786;7.840;2023-03-01T10:49:56;29.90;25.30
21807;DHT22;11065;50.786;7.840;2023-03-01T10:52:28;29.90;25.10
21807;DHT22;11065;50.786;7.840;2023-03-01T10:54:58;30.00;25.50
21807;DHT22;11065;50.786;7.840;2023-03-01T10:57:34;30.00;25.20
21807;DHT22;11065;50.786;7.840;2023-03-01T11:00:21;30.00;24.90
21807;DHT22;11065;50.786;7.840;2023-03-01T11:03:03;30.10;24.70
21807;DHT22;11065;50.786;7.840;2023-03-01T11:05:31;30.30;25.00
21807;DHT22;11065;50.786;7.840;2023-03-01T11:08:01;30.30;25.20
21807;DHT22;11065;50.786;7.840;2023-03-01T11:10:32;30.40;24.90
21807;DHT22;11065;50.786;7.840;2023-03-01T11:13:08;30.50;24.80
21807;DHT22;11065;50.786;7.840;2023-03-01T11:15:38;30.70;24.40
21807;DHT22;11065;50.786;7.840;2023-03-01T11:18:19;30.70;24.60
21807;DHT22;11065;50.786;7.840;2023-03-01T11:20:49;30.80;23.80
21807;DHT22;11065;50.786;7.840;2023-03-01T11:23:18;30.90;24.30
21807;DHT22;11065;50.786;7.840;2023-03-01T11:25:51;30.90;24.20
21807;DHT22;11065;50.786;7.840;2023-03-01T11:28:22;30.90;24.00
21807;DHT22;11065;50.786;7.840;2023-03-01T11:30:57;31.00;24.00
21807;DHT22;11065;50.786;7.840;2023-03-01T11:33:39;31.00;23.70
21807;DHT22;11065;50.786;7.840;2023-03-01T11:36:27;31.00;23.70
21807;DHT22;11065;50.786;7.840;2023-03-01T11:39:14;31.10;23.30
21807;DHT22;11065;50.786;7.840;2023-03-01T11:41:49;31.00;23.50
21807;DHT22;11065;50.786;7.840;2023-03-01T11:44:24;31.00;23.20
21807;DHT22;11065;50.786;7.840;2023-03-01T11:47:15;31.00;23.20
21807;DHT22;11065;50.786;7.840;2023-03-01T11:50:13;30.90;22.80
21807;DHT22;11065;50.786;7.840;2023-03-01T11:52:52;30.80;22.50
21807;DHT22;11065;50.786;7.840;2023-03-01T11:55:36;30.60;22.60
21807;DHT22;11065;50.786;7.840;2023-03-01T11:58:18;30.40;22.40
21807;DHT22;11065;50.786;7.840;2023-03-01T12:01:06;30.30;22.40
21807;DHT22;11065;50.786;7.840;2023-03-01T12:03:59;30.30;22.40
21807;DHT22;11065;50.786;7.840;2023-03-01T12:06:38;30.10;22.30
21807;DHT22;11065;50.786;7.840;2023-03-01T12:09:20;30.00;22.50
21807;DHT22;11065;50.786;7.840;2023-03-01T12:12:21;29.90;22.20
21807;DHT22;11065;50.786;7.840;2023-03-01T12:18:06;29.70;21.90
21807;DHT22;11065;50.786;7.840;2023-03-01T12:20:41;29.60;22.20
21807;DHT22;11065;50.786;7.840;2023-03-01T12:23:29;29.40;22.00
21807;DHT22;11065;50.786;7.840;2023-03-01T12:26:04;29.30;21.60
21807;DHT22;11065;50.786;7.840;2023-03-01T12:28:55;29.10;21.80
21807;DHT22;11065;50.786;7.840;2023-03-01T12:31:45;29.00;21.70
21807;DHT22;11065;50.786;7.840;2023-03-01T12:34:29;28.70;21.20
21807;DHT22;11065;50.786;7.840;2023-03-01T12:40:11;28.40;21.60
21807;DHT22;11065;50.786;7.840;2023-03-01T12:42:50;28.20;21.50
21807;DHT22;11065;50.786;7.840;2023-03-01T12:45:40;28.10;21.60
21807;DHT22;11065;50.786;7.840;2023-03-01T12:48:20;28.00;21.50
21807;DHT22;11065;50.786;7.840;2023-03-01T12:50:52;27.90;21.80
21807;DHT22;11065;50.786;7.840;2023-03-01T12:53:26;27.80;21.70
21807;DHT22;11065;50.786;7.840;2023-03-01T12:55:59;27.70;21.50
21807;DHT22;11065;50.786;7.840;2023-03-01T12:58:30;27.60;21.60
21807;DHT22;11065;50.786;7.840;2023-03-01T13:01:23;27.50;21.60
21807;DHT22;11065;50.786;7.840;2023-03-01T13:07:14;27.30;21.60
21807;DHT22;11065;50.786;7.840;2023-03-01T13:09:50;27.20;21.40
21807;DHT22;11065;50.786;7.840;2023-03-01T13:12:42;27.10;21.40
21807;DHT22;11065;50.786;7.840;2023-03-01T13:15:25;26.90;21.70
21807;DHT22;11065;50.786;7.840;2023-03-01T13:17:55;26.80;21.40
21807;DHT22;11065;50.786;7.840;2023-03-01T13:20:27;26.70;21.60
21807;DHT22;11065;50.786;7.840;2023-03-01T13:23:02;26.70;21.60
21807;DHT22;11065;50.786;7.840;2023-03-01T13:25:33;26.60;21.50
21807;DHT22;11065;50.786;7.840;2023-03-01T13:31:58;26.50;21.50
21807;DHT22;11065;50.786;7.840;2023-03-01T13:37:32;26.20;21.10
21807;DHT22;11065;50.786;7.840;2023-03-01T13:43:31;25.70;21.50
21807;DHT22;11065;50.786;7.840;2023-03-01T13:46:00;25.60;21.30
21807;DHT22;11065;50.786;7.840;2023-03-01T13:48:30;25.50;21.50
21807;DHT22;11065;50.786;7.840;2023-03-01T13:50:59;25.40;21.30
21807;DHT22;11065;50.786;7.840;2023-03-01T13:53:31;25.40;21.40
21807;DHT22;11065;50.786;7.840;2023-03-01T13:56:07;25.30;21.30
21807;DHT22;11065;50.786;7.840;2023-03-01T13:58:48;25.30;21.50
21807;DHT22;11065;50.786;7.840;2023-03-01T14:01:23;25.20;21.20
21807;DHT22;11065;50.786;7.840;2023-03-01T14:03:52;25.20;21.80
21807;DHT22;11065;50.786;7.840;2023-03-01T14:06:22;25.20;21.70
21807;DHT22;11065;50.786;7.840;2023-03-01T14:09:00;25.20;21.70
21807;DHT22;11065;50.786;7.840;2023-03-01T14:14:48;25.00;21.30
21807;DHT22;11065;50.786;7.840;2023-03-01T14:17:31;24.90;21.20
21807;DHT22;11065;50.786;7.840;2023-03-01T14:20:07;24.90;21.20
21807;DHT22;11065;50.786;7.840;2023-03-01T14:22:37;24.90;21.40
21807;DHT22;11065;50.786;7.840;2023-03-01T14:25:27;24.80;21.40
21807;DHT22;11065;50.786;7.840;2023-03-01T14:28:00;24.80;21.30
21807;DHT22;11065;50.786;7.840;2023-03-01T14:30:35;24.70;21.30
21807;DHT22;11065;50.786;7.840;2023-03-01T14:33:16;24.60;21.20
21807;DHT22;11065;50.786;7.840;2023-03-01T14:35:53;24.50;21.30
21807;DHT22;11065;50.786;7.840;2023-03-01T14:38:23;24.50;21.10
21807;DHT22;11065;50.786;7.840;2023-03-01T14:40:54;24.40;21.20
21807;DHT22;11065;50.786;7.840;2023-03-01T14:43:24;24.40;21.20
21807;DHT22;11065;50.786;7.840;2023-03-01T14:45:55;24.30;21.30
21807;DHT22;11065;50.786;7.840;2023-03-01T14:48:24;24.30;21.30
21807;DHT22;11065;50.786;7.840;2023-03-01T14:50:53;24.00;21.10
21807;DHT22;11065;50.786;7.840;2023-03-01T14:53:24;23.80;21.20
21807;DHT22;11065;50.786;7.840;2023-03-01T14:55:54;23.70;21.40
21807;DHT22;11065;50.786;7.840;2023-03-01T14:58:24;23.60;21.50
21807;DHT22;11065;50.786;7.840;2023-03-01T15:00:55;23.40;21.40
21807;DHT22;11065;50.786;7.840;2023-03-01T15:03:28;23.40;21.60
21807;DHT22;11065;50.786;7.840;2023-03-01T15:05:58;23.40;21.70
21807;DHT22;11065;50.786;7.840;2023-03-01T15:08:28;23.30;21.60
21807;DHT22;11065;50.786;7.840;2023-03-01T15:11:03;23.20;21.70
21807;DHT22;11065;50.786;7.840;2023-03-01T15:13:35;23.10;21.80
21807;DHT22;11065;50.786;7.840;2023-03-01T15:16:07;23.00;21.70
21807;DHT22;11065;50.786;7.840;2023-03-01T15:18:37;22.90;21.70
21807;DHT22;11065;50.786;7.840;2023-03-01T15:21:17;22.70;21.80
21807;DHT22;11065;50.786;7.840;2023-03-01T15:23:49;22.60;21.80
21807;DHT22;11065;50.786;7.840;2023-03-01T15:26:25;22.40;21.90
21807;DHT22;11065;50.786;7.840;2023-03-01T15:28:55;22.20;21.90
21807;DHT22;11065;50.786;7.840;2023-03-01T15:31:29;22.00;21.90
21807;DHT22;11065;50.786;7.840;2023-03-01T15:34:11;21.90;21.90
21807;DHT22;11065;50.786;7.840;2023-03-01T15:36:50;21.70;21.90
21807;DHT22;11065;50.786;7.840;2023-03-01T15:39:34;21.50;21.90
21807;DHT22;11065;50.786;7.840;2023-03-01T15:42:10;21.30;21.90
21807;DHT22;11065;50.786;7.840;2023-03-01T15:44:39;21.20;22.30
21807;DHT22;11065;50.786;7.840;2023-03-01T15:47:30;21.00;22.60
21807;DHT22;11065;50.786;7.840;2023-03-01T15:49:59;20.90;22.40
21807;DHT22;11065;50.786;7.840;2023-03-01T15:52:32;20.80;22.30
21807;DHT22;11065;50.786;7.840;2023-03-01T15:55:12;20.60;22.60
21807;DHT22;11065;50.786;7.840;2023-03-01T15:57:42;20.60;22.50
21807;DHT22;11065;50.786;7.840;2023-03-01T16:00:12;20.40;22.50
21807;DHT22;11065;50.786;7.840;2023-03-01T16:02:43;20.30;22.60
21807;DHT22;11065;50.786;7.840;2023-03-01T16:05:18;20.20;22.50
21807;DHT22;11065;50.786;7.840;2023-03-01T16:07:46;20.00;22.70
21807;DHT22;11065;50.786;7.840;2023-03-01T16:10:15;19.90;22.60
21807;DHT22;11065;50.786;7.840;2023-03-01T16:12:43;19.70;22.70
21807;DHT22;11065;50.786;7.840;2023-03-01T16:15:17;19.60;22.70
21807;DHT22;11065;50.786;7.840;2023-03-01T16:17:47;19.50;22.70
21807;DHT22;11065;50.786;7.840;2023-03-01T16:20:21;19.40;22.60
21807;DHT22;11065;50.786;7.840;2023-03-01T16:22:55;19.20;22.50
21807;DHT22;11065;50.786;7.840;2023-03-01T16:25:27;19.10;22.60
21807;DHT22;11065;50.786;7.840;2023-03-01T16:27:55;18.90;22.70
21807;DHT22;11065;50.786;7.840;2023-03-01T16:30:25;18.80;22.70